Time;durP1;ratioP1;P1;durP2;ratioP2;P2;SDS_P1;SDS_P2;PMS_P1;PMS_P2;Temp;Humidity;BMP_temperature;BMP_pressure;BME280_temperature;BME280_humidity;BME280_pressure;Samples;Min_cycle;Max_cycle;Signal;HPM_P1;HPM_P2
2022/12/21 00:00:19;;;;;;;23.13;14.25;;;8.10;99.90;;;;;;5064456;28;20106;-79
2022/12/21 00:02:44;;;;;;;27.20;14.50;;;8.10;99.90;;;;;;5068998;28;20035;-79
2022/12/21 00:05:10;;;;;;;33.70;17.38;;;8.20;99.90;;;;;;5060736;28;20028;-79
2022/12/21 00:07:38;;;;;;;25.10;15.38;;;8.20;99.90;;;;;;5066293;28;20111;-78
2022/12/21 00:10:05;;;;;;;25.52;14.98;;;8.20;99.90;;;;;;5076404;28;20043;-79
2022/12/21 00:12:30;;;;;;;27.45;15.60;;;8.20;99.90;;;;;;5073559;28;20049;-79
2022/12/21 00:14:56;;;;;;;24.42;15.07;;;8.20;99.90;;;;;;5073391;28;20067;-79
2022/12/21 00:17:22;;;;;;;27.00;14.88;;;8.20;99.90;;;;;;5052796;28;20048;-79
2022/12/21 00:19:47;;;;;;;23.33;14.90;;;8.20;99.90;;;;;;5060446;28;20454;-78
2022/12/21 00:22:13;;;;;;;25.45;14.55;;;8.20;99.90;;;;;;5063116;28;20055;-79
2022/12/21 00:24:38;;;;;;;25.25;14.63;;;8.20;99.90;;;;;;5067205;28;20036;-78
2022/12/21 00:27:04;;;;;;;24.55;14.55;;;8.20;99.90;;;;;;5071424;28;20054;-79
2022/12/21 00:29:30;;;;;;;21.30;14.35;;;8.20;99.90;;;;;;5066563;28;20066;-79
2022/12/21 00:31:55;;;;;;;24.85;15.15;;;8.20;99.90;;;;;;5069545;28;20052;-78
2022/12/21 00:34:21;;;;;;;25.52;15.68;;;8.30;99.90;;;;;;5073640;28;20024;-79
2022/12/21 00:36:48;;;;;;;22.20;14.80;;;8.20;99.90;;;;;;5065779;28;20035;-79
2022/12/21 00:39:15;;;;;;;22.90;14.10;;;8.20;99.90;;;;;;5062404;28;20478;-79
2022/12/21 00:41:42;;;;;;;26.00;15.70;;;8.20;99.90;;;;;;5060976;28;20056;-79
2022/12/21 00:44:08;;;;;;;26.83;15.32;;;8.20;99.90;;;;;;5065132;28;20062;-79
2022/12/21 00:46:34;;;;;;;26.33;14.70;;;8.20;99.90;;;;;;5069384;28;20020;-83
2022/12/21 00:49:06;;;;;;;28.10;14.45;;;8.20;99.90;;;;;;5067040;28;20033;-79
2022/12/21 00:51:33;;;;;;;26.80;15.25;;;8.20;99.90;;;;;;5069159;28;20027;-78
2022/12/21 00:53:59;;;;;;;24.73;14.52;;;8.20;99.90;;;;;;5061185;28;20047;-79
2022/12/21 00:56:27;;;;;;;23.23;14.65;;;8.20;99.90;;;;;;5059305;28;20036;-78
2022/12/21 00:58:53;;;;;;;24.08;15.27;;;8.20;99.90;;;;;;5062631;28;20466;-79
2022/12/21 01:01:22;;;;;;;20.30;14.00;;;8.20;99.90;;;;;;5063030;28;20029;-79
2022/12/21 01:03:48;;;;;;;20.58;14.32;;;8.30;99.90;;;;;;5072012;28;20071;-78
2022/12/21 01:06:18;;;;;;;21.08;13.73;;;8.20;99.90;;;;;;5070358;28;20242;-78
2022/12/21 01:08:44;;;;;;;32.35;14.00;;;8.20;99.90;;;;;;5067150;28;20029;-78
2022/12/21 01:11:12;;;;;;;23.40;14.40;;;8.20;99.90;;;;;;5076386;28;20102;-79
2022/12/21 01:13:38;;;;;;;22.48;14.43;;;8.30;99.90;;;;;;5073151;28;20090;-78
2022/12/21 01:16:09;;;;;;;22.73;14.82;;;8.20;99.90;;;;;;5066686;28;20484;-79
2022/12/21 01:18:35;;;;;;;23.65;15.32;;;8.20;99.90;;;;;;5070374;28;20493;-79
2022/12/21 01:21:01;;;;;;;23.48;15.00;;;8.20;99.90;;;;;;5060918;28;20108;-80
2022/12/21 01:23:26;;;;;;;24.33;15.02;;;8.20;99.90;;;;;;5069938;28;20112;-79
2022/12/21 01:25:52;;;;;;;22.60;15.32;;;8.20;99.90;;;;;;5067161;28;20032;-80
2022/12/21 01:28:17;;;;;;;20.52;14.07;;;8.20;99.90;;;;;;5058232;28;20461;-79
2022/12/21 01:30:43;;;;;;;24.02;14.20;;;8.20;99.90;;;;;;5066205;28;20469;-79
2022/12/21 01:33:18;;;;;;;21.73;14.48;;;8.20;99.90;;;;;;5055809;28;20029;-78
2022/12/21 01:35:45;;;;;;;22.13;13.97;;;8.20;99.90;;;;;;5068061;28;20404;-79
2022/12/21 01:38:11;;;;;;;19.30;13.82;;;8.20;99.90;;;;;;5062797;28;20032;-81
2022/12/21 01:40:37;;;;;;;20.17;13.85;;;8.20;99.90;;;;;;5060363;28;20488;-80
2022/12/21 01:43:37;;;;;;;17.95;13.20;;;8.20;99.90;;;;;;5069135;28;20033;-79
2022/12/21 01:46:04;;;;;;;18.52;11.73;;;8.20;99.90;;;;;;5051604;28;20073;-79
2022/12/21 01:48:33;;;;;;;17.98;13.30;;;8.20;99.90;;;;;;5060301;28;20024;-80
2022/12/21 01:51:04;;;;;;;17.17;11.45;;;8.20;99.90;;;;;;5065346;28;20108;-79
2022/12/21 01:53:36;;;;;;;21.73;13.60;;;8.20;99.90;;;;;;5064339;28;20311;-79
2022/12/21 01:56:06;;;;;;;18.67;12.60;;;8.20;99.90;;;;;;5063684;28;20370;-79
2022/12/21 01:58:33;;;;;;;19.48;12.90;;;8.30;99.90;;;;;;5072884;28;20131;-79
2022/12/21 02:01:01;;;;;;;23.02;13.88;;;8.30;99.90;;;;;;5053827;28;20051;-79
2022/12/21 02:03:31;;;;;;;16.20;11.95;;;8.30;99.90;;;;;;5069069;28;20024;-79
2022/12/21 02:06:07;;;;;;;20.02;13.00;;;8.30;99.90;;;;;;5060452;28;20040;-79
2022/12/21 02:08:33;;;;;;;18.20;13.73;;;8.30;99.90;;;;;;5071661;28;20055;-79
2022/12/21 02:11:00;;;;;;;18.73;12.95;;;8.30;99.90;;;;;;5076068;28;20032;-79
2022/12/21 02:13:26;;;;;;;19.48;13.98;;;8.30;99.90;;;;;;5066916;28;20040;-79
2022/12/21 02:16:01;;;;;;;18.73;13.43;;;8.30;99.90;;;;;;5071673;28;20465;-79
2022/12/21 02:18:45;;;;;;;;;;;8.30;99.90;;;;;;5075300;28;20111;-79
2022/12/21 02:21:31;;;;;;;18.60;13.90;;;8.30;99.90;;;;;;5078011;28;20395;-79
2022/12/21 02:24:16;;;;;;;18.10;12.80;;;8.30;99.90;;;;;;5070430;28;20434;-79
2022/12/21 02:26:56;;;;;;;17.42;12.98;;;8.30;99.90;;;;;;5069952;28;20505;-78
2022/12/21 02:29:44;;;;;;;17.60;12.38;;;8.30;99.90;;;;;;5061145;28;20393;-78
2022/12/21 02:32:23;;;;;;;18.38;11.68;;;8.40;99.90;;;;;;5073534;28;20119;-80
2022/12/21 02:34:58;;;;;;;14.75;10.55;;;8.40;99.90;;;;;;5068619;28;20243;-79
2022/12/21 02:37:24;;;;;;;13.23;10.77;;;8.40;99.90;;;;;;5066327;28;20032;-79
2022/12/21 02:40:00;;;;;;;14.20;9.57;;;8.40;99.90;;;;;;5073977;28;20496;-79
2022/12/21 02:45:34;;;;;;;14.82;10.00;;;8.50;99.90;;;;;;5077666;28;20099;-78
2022/12/21 02:48:13;;;;;;;15.05;11.27;;;8.50;99.90;;;;;;5065110;28;20025;-80
2022/12/21 02:50:47;;;;;;;14.00;10.75;;;8.50;99.90;;;;;;5070596;28;20036;-79
2022/12/21 02:53:16;;;;;;;14.65;10.65;;;8.50;99.90;;;;;;5075777;28;20039;-79
2022/12/21 02:55:44;;;;;;;14.00;10.18;;;8.50;99.90;;;;;;5072289;28;20017;-78
2022/12/21 02:58:21;;;;;;;14.77;10.43;;;8.50;99.90;;;;;;5061118;28;20052;-79
2022/12/21 03:00:53;;;;;;;15.77;10.45;;;8.40;99.90;;;;;;5062806;28;20074;-78
2022/12/21 03:03:49;;;;;;;12.63;9.68;;;8.40;99.90;;;;;;5070609;28;20028;-79
2022/12/21 03:06:32;;;;;;;12.02;9.40;;;8.50;99.90;;;;;;5074685;28;20103;-79
2022/12/21 03:09:13;;;;;;;14.55;10.35;;;8.50;99.90;;;;;;5066970;28;20121;-79
2022/12/21 03:12:00;;;;;;;13.10;9.45;;;8.40;99.90;;;;;;5074840;28;20024;-80
2022/12/21 03:14:32;;;;;;;11.25;8.90;;;8.50;99.90;;;;;;5068172;28;20119;-80
2022/12/21 03:17:06;;;;;;;12.80;9.63;;;8.50;99.90;;;;;;5068104;28;20070;-78
2022/12/21 03:19:40;;;;;;;12.20;9.23;;;8.60;99.90;;;;;;5077390;28;20048;-81
2022/12/21 03:22:17;;;;;;;10.88;8.20;;;8.60;99.90;;;;;;5075610;28;20020;-77
2022/12/21 03:24:53;;;;;;;11.10;8.85;;;8.60;99.90;;;;;;5069199;28;20118;-80
2022/12/21 03:27:23;;;;;;;11.05;8.73;;;8.70;99.90;;;;;;5071518;28;20535;-79
2022/12/21 03:30:18;;;;;;;11.63;8.75;;;8.60;99.90;;;;;;5066952;28;20458;-78
2022/12/21 03:32:54;;;;;;;12.68;9.40;;;8.70;99.90;;;;;;5065391;28;20032;-80
2022/12/21 03:35:28;;;;;;;10.15;8.55;;;8.70;99.90;;;;;;5072640;28;20036;-79
2022/12/21 03:38:01;;;;;;;14.35;9.32;;;8.70;99.90;;;;;;5077120;28;20071;-80
2022/12/21 03:40:30;;;;;;;12.77;10.43;;;8.70;99.90;;;;;;5068567;28;20028;-78
2022/12/21 03:43:07;;;;;;;11.18;9.10;;;8.70;99.90;;;;;;5076544;28;20047;-79
2022/12/21 03:45:38;;;;;;;13.25;10.05;;;8.80;99.90;;;;;;5064921;28;20485;-79
2022/12/21 03:48:13;;;;;;;12.35;9.88;;;8.80;99.90;;;;;;5068728;28;20028;-79
2022/12/21 03:50:44;;;;;;;11.98;9.10;;;8.80;99.90;;;;;;5070627;28;20500;-79
2022/12/21 03:53:28;;;;;;;14.90;9.70;;;8.70;99.90;;;;;;5050529;28;20123;-78
2022/12/21 03:55:59;;;;;;;11.85;8.90;;;8.80;99.90;;;;;;5068810;28;20024;-79
2022/12/21 03:58:25;;;;;;;11.20;9.23;;;8.70;99.90;;;;;;5057520;28;20048;-78
2022/12/21 04:01:12;;;;;;;14.63;10.60;;;8.70;99.90;;;;;;5069185;28;20078;-79
2022/12/21 04:03:42;;;;;;;11.30;9.07;;;8.80;99.90;;;;;;5061466;28;20013;-78
2022/12/21 04:06:13;;;;;;;10.20;8.52;;;8.80;99.90;;;;;;5069868;28;20024;-79
2022/12/21 04:08:41;;;;;;;10.48;8.88;;;8.80;99.90;;;;;;5067112;28;20032;-79
2022/12/21 04:12:35;;;;;;;10.13;8.93;;;8.80;99.90;;;;;;5078618;28;20028;-79
2022/12/21 04:13:52;;;;;;;8.43;7.53;;;8.80;99.90;;;;;;5073444;28;20036;-79
2022/12/21 04:16:18;;;;;;;11.52;9.07;;;8.70;99.90;;;;;;5078921;28;20491;-78
2022/12/21 04:21:28;;;;;;;9.13;6.50;;;8.70;99.90;;;;;;5077515;28;20521;-79
2022/12/21 04:29:21;;;;;;;10.75;8.35;;;8.60;99.90;;;;;;5067741;28;20035;-79
2022/12/21 04:31:47;;;;;;;10.45;7.90;;;8.70;99.90;;;;;;5071867;28;20020;-79
2022/12/21 04:34:12;;;;;;;10.95;8.25;;;8.70;99.90;;;;;;5072560;28;20074;-80
2022/12/21 04:39:28;;;;;;;8.60;7.75;;;8.90;99.90;;;;;;5068778;28;20472;-78
2022/12/21 04:41:54;;;;;;;10.95;6.88;;;8.90;99.90;;;;;;5070255;28;20115;-78
2022/12/21 04:44:20;;;;;;;9.88;7.68;;;8.90;99.90;;;;;;5073775;28;20025;-78
2022/12/21 04:46:45;;;;;;;12.02;7.97;;;8.90;99.90;;;;;;5070326;28;20035;-78
2022/12/21 04:49:11;;;;;;;10.77;7.35;;;8.90;99.90;;;;;;5077495;28;20020;-78
2022/12/21 04:51:36;;;;;;;8.15;7.13;;;8.90;99.90;;;;;;5069398;28;20028;-79
2022/12/21 04:54:03;;;;;;;9.50;7.93;;;8.90;99.90;;;;;;5069915;28;20024;-79
2022/12/21 04:56:29;;;;;;;8.65;7.00;;;8.90;99.90;;;;;;5069644;28;20025;-78
2022/12/21 04:58:54;;;;;;;7.80;7.00;;;8.90;99.90;;;;;;5071882;28;20056;-79
2022/12/21 05:01:21;;;;;;;8.40;7.60;;;8.90;99.90;;;;;;5072739;28;20473;-78
2022/12/21 05:03:48;;;;;;;9.00;7.70;;;8.90;99.90;;;;;;5071098;28;20107;-79
2022/12/21 05:06:17;;;;;;;9.82;8.25;;;8.90;99.90;;;;;;5073350;28;20036;-77
2022/12/21 05:08:43;;;;;;;9.95;7.72;;;8.90;99.90;;;;;;5059274;28;20052;-78
2022/12/21 05:11:20;;;;;;;9.98;7.53;;;8.90;99.90;;;;;;5070519;28;20020;-78
2022/12/21 05:13:46;;;;;;;9.57;7.85;;;8.80;99.90;;;;;;5066133;28;20074;-78
2022/12/21 05:16:15;;;;;;;8.55;7.65;;;8.90;99.90;;;;;;5068930;28;20062;-77
2022/12/21 05:18:43;;;;;;;8.20;7.30;;;8.90;99.90;;;;;;5072324;28;20055;-78
2022/12/21 05:21:09;;;;;;;10.82;7.55;;;8.90;99.90;;;;;;5077637;28;20032;-79
2022/12/21 05:23:35;;;;;;;14.70;7.88;;;8.90;99.90;;;;;;5065419;28;20407;-78
2022/12/21 05:26:03;;;;;;;8.75;7.25;;;8.90;99.90;;;;;;5065358;28;20025;-79
2022/12/21 05:28:29;;;;;;;7.93;6.28;;;8.90;99.90;;;;;;5068848;28;20119;-80
2022/12/21 05:30:54;;;;;;;7.72;6.57;;;8.90;99.90;;;;;;5069180;28;20106;-78
2022/12/21 05:33:20;;;;;;;8.52;5.85;;;8.90;99.90;;;;;;5073852;28;20083;-79
2022/12/21 05:35:47;;;;;;;6.03;5.25;;;8.90;99.90;;;;;;5065283;28;20024;-78
2022/12/21 05:38:12;;;;;;;6.03;5.07;;;9.00;99.90;;;;;;5060482;28;20037;-79
2022/12/21 05:40:38;;;;;;;6.30;5.70;;;9.00;99.90;;;;;;5068008;28;20070;-79
2022/12/21 05:43:05;;;;;;;6.07;5.15;;;8.90;99.90;;;;;;5077758;28;20077;-78
2022/12/21 05:45:31;;;;;;;8.88;7.57;;;8.90;99.90;;;;;;5072271;28;20466;-79
2022/12/21 05:47:57;;;;;;;8.27;6.53;;;8.90;99.90;;;;;;5071617;28;20082;-81
2022/12/21 05:50:24;;;;;;;8.88;7.05;;;8.90;99.90;;;;;;5074350;28;20081;-79
2022/12/21 05:52:50;;;;;;;8.45;5.78;;;8.90;99.90;;;;;;5074766;28;20021;-79
2022/12/21 05:55:15;;;;;;;10.32;5.55;;;8.80;99.90;;;;;;5068294;28;20027;-79
2022/12/21 05:57:41;;;;;;;8.05;6.60;;;8.80;99.90;;;;;;5064228;28;20180;-78
2022/12/21 06:00:31;;;;;;;6.20;5.60;;;8.80;99.90;;;;;;5060690;28;20032;-79
2022/12/21 06:02:57;;;;;;;7.18;6.25;;;8.80;99.90;;;;;;5058136;28;20127;-79
2022/12/21 06:05:23;;;;;;;6.53;5.65;;;8.80;99.90;;;;;;5071421;28;20481;-79
2022/12/21 06:07:49;;;;;;;7.20;5.80;;;8.80;99.90;;;;;;5073257;28;20024;-79
2022/12/21 06:10:14;;;;;;;6.22;5.30;;;8.70;99.90;;;;;;5079205;28;20028;-79
2022/12/21 06:12:40;;;;;;;6.50;5.63;;;8.70;99.90;;;;;;5079304;28;20058;-78
2022/12/21 06:15:06;;;;;;;7.20;5.90;;;8.70;99.90;;;;;;5082162;28;20043;-78
2022/12/21 06:17:32;;;;;;;7.00;5.18;;;8.70;99.90;;;;;;5070769;28;20097;-79
2022/12/21 06:19:58;;;;;;;6.50;5.47;;;8.70;99.90;;;;;;5078311;28;20028;-78
2022/12/21 06:22:23;;;;;;;5.75;4.85;;;8.60;99.90;;;;;;5078516;28;20017;-79
2022/12/21 06:24:49;;;;;;;7.35;4.72;;;8.60;99.90;;;;;;5087294;28;20028;-79
2022/12/21 06:27:14;;;;;;;4.95;4.30;;;8.60;99.90;;;;;;5077344;28;20028;-79
2022/12/21 06:29:40;;;;;;;4.97;4.47;;;8.60;99.90;;;;;;5077308;28;20434;-79
2022/12/21 06:32:06;;;;;;;5.88;4.80;;;8.60;99.90;;;;;;5072411;28;20432;-79
2022/12/21 06:34:32;;;;;;;4.85;4.00;;;8.60;99.90;;;;;;5082933;28;20038;-79
2022/12/21 06:36:57;;;;;;;4.68;3.92;;;8.60;99.90;;;;;;5078118;28;20476;-79
2022/12/21 06:39:23;;;;;;;3.55;3.22;;;8.60;99.90;;;;;;5078470;28;20028;-79
2022/12/21 06:41:48;;;;;;;3.75;3.33;;;8.70;99.90;;;;;;5073739;28;20079;-79
2022/12/21 06:44:14;;;;;;;3.95;3.55;;;8.70;99.90;;;;;;5076837;28;20081;-79
2022/12/21 06:46:40;;;;;;;3.80;3.40;;;8.70;99.90;;;;;;5080290;28;20366;-79
2022/12/21 06:49:05;;;;;;;3.58;3.00;;;8.80;99.90;;;;;;5076463;28;20028;-80
2022/12/21 06:51:31;;;;;;;4.45;3.33;;;8.80;99.90;;;;;;5081171;28;20033;-79
2022/12/21 06:53:56;;;;;;;3.08;2.78;;;8.80;99.90;;;;;;5075533;28;20055;-79
2022/12/21 06:56:25;;;;;;;4.93;3.90;;;8.90;99.90;;;;;;5076885;28;20029;-79
2022/12/21 06:58:53;;;;;;;3.72;3.35;;;8.90;99.90;;;;;;5073246;28;20604;-79
2022/12/21 07:01:22;;;;;;;3.15;2.85;;;8.90;99.90;;;;;;5074688;28;20028;-79
2022/12/21 07:03:48;;;;;;;2.78;2.58;;;8.90;99.90;;;;;;5072915;28;20061;-78
2022/12/21 07:06:16;;;;;;;2.80;2.60;;;9.00;99.90;;;;;;5074586;28;20033;-79
2022/12/21 07:08:42;;;;;;;2.97;2.67;;;9.10;99.90;;;;;;5065217;28;20093;-79
2022/12/21 07:11:10;;;;;;;3.40;2.60;;;9.10;99.90;;;;;;5073712;28;20477;-79
2022/12/21 07:13:39;;;;;;;3.13;2.83;;;9.10;99.90;;;;;;5078657;28;20024;-79
2022/12/21 07:16:05;;;;;;;3.10;2.85;;;9.10;99.90;;;;;;5080858;28;20074;-79
2022/12/21 07:18:31;;;;;;;4.13;3.13;;;9.00;99.90;;;;;;5078530;28;20033;-80
2022/12/21 07:20:58;;;;;;;3.22;2.92;;;9.00;99.90;;;;;;5073735;28;20035;-79
2022/12/21 07:23:26;;;;;;;2.97;2.78;;;9.00;99.90;;;;;;5071911;28;20050;-79
2022/12/21 07:25:52;;;;;;;4.72;3.30;;;8.90;99.90;;;;;;5073877;28;20043;-79
2022/12/21 07:28:18;;;;;;;5.20;3.70;;;8.90;99.90;;;;;;5079027;28;20024;-79
2022/12/21 07:30:48;;;;;;;3.72;3.28;;;8.90;99.90;;;;;;5069838;28;20025;-79
2022/12/21 07:33:14;;;;;;;5.15;4.15;;;8.90;99.90;;;;;;5075079;28;20337;-79
2022/12/21 07:35:40;;;;;;;6.93;4.05;;;8.90;99.90;;;;;;5072068;28;20447;-79
2022/12/21 07:38:05;;;;;;;6.72;4.47;;;8.80;99.90;;;;;;5077536;28;20119;-80
2022/12/21 07:40:34;;;;;;;5.60;4.25;;;8.70;99.90;;;;;;5075679;28;20039;-79
2022/12/21 07:42:59;;;;;;;4.97;3.90;;;8.70;99.90;;;;;;5080904;28;20081;-79
2022/12/21 07:45:26;;;;;;;4.63;3.75;;;8.70;99.90;;;;;;5081710;28;20016;-79
2022/12/21 07:47:56;;;;;;;4.97;4.07;;;8.70;99.90;;;;;;5078684;28;20028;-79
2022/12/21 07:50:21;;;;;;;6.32;5.10;;;8.70;99.90;;;;;;5082153;28;20051;-79
2022/12/21 07:52:47;;;;;;;8.23;5.63;;;8.70;99.90;;;;;;5068052;28;20024;-79
2022/12/21 07:55:12;;;;;;;5.68;4.45;;;8.60;99.90;;;;;;5078267;28;20035;-79
2022/12/21 07:57:38;;;;;;;4.55;3.88;;;8.70;99.90;;;;;;5065962;28;20041;-79
2022/12/21 08:00:04;;;;;;;7.20;4.10;;;8.70;99.90;;;;;;5072305;28;20096;-79
2022/12/21 08:02:30;;;;;;;4.43;4.03;;;8.70;99.90;;;;;;5068639;28;20518;-79
2022/12/21 08:04:56;;;;;;;10.05;3.65;;;8.90;99.90;;;;;;5068184;28;20051;-79
2022/12/21 08:07:21;;;;;;;4.07;3.67;;;8.90;99.90;;;;;;5081190;28;20032;-79
2022/12/21 08:09:47;;;;;;;4.72;3.22;;;8.90;99.90;;;;;;5072154;28;20510;-79
2022/12/21 08:12:12;;;;;;;4.35;3.55;;;9.00;99.90;;;;;;5081857;28;20035;-78
2022/12/21 08:14:38;;;;;;;3.70;3.13;;;9.00;99.90;;;;;;5077504;28;20081;-78
2022/12/21 08:17:03;;;;;;;3.85;3.40;;;9.00;99.90;;;;;;5080500;28;20036;-79
2022/12/21 08:19:29;;;;;;;4.63;3.58;;;9.00;99.90;;;;;;5086367;28;20547;-79
2022/12/21 08:21:54;;;;;;;3.63;2.85;;;9.10;99.90;;;;;;5085405;28;20393;-78
2022/12/21 08:24:20;;;;;;;3.45;3.05;;;9.20;99.90;;;;;;5083094;28;20380;-79
2022/12/21 08:26:48;;;;;;;3.40;3.10;;;9.20;99.90;;;;;;5075372;28;20473;-78
2022/12/21 08:29:14;;;;;;;2.92;2.65;;;9.20;99.90;;;;;;5064056;28;20029;-78
2022/12/21 08:31:40;;;;;;;3.28;2.97;;;9.20;99.90;;;;;;5078837;28;20025;-78
2022/12/21 08:34:06;;;;;;;3.13;2.83;;;9.20;99.90;;;;;;5075577;28;20020;-79
2022/12/21 08:36:31;;;;;;;3.67;3.35;;;9.10;99.90;;;;;;5076702;28;20103;-78
2022/12/21 08:38:57;;;;;;;4.03;3.63;;;9.10;99.90;;;;;;5076573;28;20040;-78
2022/12/21 08:41:24;;;;;;;4.57;3.92;;;9.00;99.90;;;;;;5068770;28;20036;-79
2022/12/21 08:43:50;;;;;;;5.43;4.57;;;9.00;99.90;;;;;;5085770;28;20067;-79
2022/12/21 08:46:15;;;;;;;4.10;3.72;;;9.00;99.90;;;;;;5086156;28;20048;-79
2022/12/21 08:48:41;;;;;;;4.95;3.80;;;8.90;99.90;;;;;;5086049;28;20135;-78
2022/12/21 08:51:07;;;;;;;4.47;4.07;;;9.00;99.90;;;;;;5085368;28;20429;-79
2022/12/21 08:53:34;;;;;;;5.20;4.70;;;9.00;99.90;;;;;;5077962;28;20016;-79
2022/12/21 08:56:00;;;;;;;5.90;4.82;;;9.00;99.90;;;;;;5061919;28;20024;-80
2022/12/21 08:58:26;;;;;;;5.97;4.82;;;9.10;99.90;;;;;;5085186;28;20097;-79
2022/12/21 09:00:53;;;;;;;6.00;5.38;;;9.10;99.90;;;;;;5077154;28;20161;-79
2022/12/21 09:03:20;;;;;;;9.07;6.35;;;9.10;99.90;;;;;;5084747;28;20028;-78
2022/12/21 09:05:46;;;;;;;7.25;6.03;;;9.10;99.90;;;;;;5086700;28;20070;-79
2022/12/21 09:08:12;;;;;;;8.80;7.07;;;9.10;99.90;;;;;;5083684;28;20106;-78
2022/12/21 09:10:38;;;;;;;7.80;6.70;;;9.10;99.90;;;;;;5079072;28;20043;-78
2022/12/21 09:13:04;;;;;;;9.10;7.13;;;9.10;99.90;;;;;;5084746;28;20029;-78
2022/12/21 09:15:29;;;;;;;9.73;8.43;;;9.10;99.90;;;;;;5088305;28;20401;-79
2022/12/21 09:17:55;;;;;;;8.18;7.22;;;9.00;99.90;;;;;;5089025;28;20043;-78
2022/12/21 09:20:21;;;;;;;10.20;7.75;;;9.00;99.90;;;;;;5087099;28;20436;-78
2022/12/21 09:22:47;;;;;;;9.85;7.72;;;9.00;99.90;;;;;;5061020;28;20148;-79
2022/12/21 09:25:12;;;;;;;8.57;7.10;;;9.00;99.90;;;;;;5079338;28;20028;-79
2022/12/21 09:27:38;;;;;;;9.27;8.18;;;9.00;99.90;;;;;;5077991;28;20024;-78
2022/12/21 09:30:05;;;;;;;9.07;8.13;;;9.00;99.90;;;;;;5076170;28;20029;-78
2022/12/21 09:32:30;;;;;;;9.57;8.57;;;9.00;99.90;;;;;;5054131;28;20043;-78
2022/12/21 09:34:56;;;;;;;10.50;9.40;;;9.00;99.90;;;;;;5059011;28;20113;-78
2022/12/21 09:37:21;;;;;;;11.13;9.30;;;9.10;99.90;;;;;;5077287;28;20017;-79
2022/12/21 09:39:47;;;;;;;9.48;8.48;;;9.10;99.90;;;;;;5075007;28;20052;-79
2022/12/21 09:42:15;;;;;;;8.50;7.60;;;9.10;99.90;;;;;;5059895;28;20086;-78
2022/12/21 09:44:56;;;;;;;6.63;5.97;;;9.10;99.90;;;;;;5077345;28;20569;-78
2022/12/21 09:47:33;;;;;;;8.55;6.18;;;9.10;99.90;;;;;;5069715;28;20032;-78
2022/12/21 09:50:02;;;;;;;6.55;5.78;;;9.00;99.90;;;;;;5076222;28;20370;-78
2022/12/21 09:52:42;;;;;;;5.68;5.05;;;9.10;99.90;;;;;;5076511;28;20032;-79
2022/12/21 09:55:15;;;;;;;6.53;5.82;;;9.00;99.90;;;;;;5081390;28;20461;-79
2022/12/21 09:57:43;;;;;;;7.35;6.53;;;9.00;99.90;;;;;;5074530;28;20512;-79
2022/12/21 10:00:16;;;;;;;6.30;5.70;;;9.00;99.90;;;;;;5072554;28;20120;-79
2022/12/21 10:02:51;;;;;;;6.60;5.30;;;9.00;99.90;;;;;;5072139;28;20389;-78
2022/12/21 10:06:10;;;;;;;6.10;5.50;;;9.10;99.90;;;;;;5076122;28;20465;-79
2022/12/21 10:08:52;;;;;;;6.95;4.97;;;9.10;99.90;;;;;;4982815;28;20387;-80
2022/12/21 10:11:39;;;;;;;5.90;5.20;;;9.10;99.90;;;;;;4993470;28;20034;-80
2022/12/21 10:14:21;;;;;;;4.40;3.92;;;9.20;99.90;;;;;;5062000;28;20082;-80
2022/12/21 10:17:20;;;;;;;4.10;3.70;;;9.30;99.90;;;;;;5065257;28;20036;-80
2022/12/21 10:20:04;;;;;;;4.75;4.10;;;9.30;99.90;;;;;;5067494;28;20047;-80
2022/12/21 10:22:37;;;;;;;4.38;3.97;;;9.40;99.90;;;;;;5074758;28;20025;-80
2022/12/21 10:25:13;;;;;;;4.10;3.60;;;9.40;99.90;;;;;;5047245;28;20038;-80
2022/12/21 10:27:45;;;;;;;3.42;3.15;;;9.40;99.90;;;;;;5084941;28;20024;-80
2022/12/21 10:30:13;;;;;;;5.28;3.92;;;9.50;99.90;;;;;;5083594;28;20056;-80
2022/12/21 10:32:40;;;;;;;3.58;3.28;;;9.50;99.90;;;;;;5072087;28;20029;-78
2022/12/21 10:35:16;;;;;;;3.05;2.75;;;9.50;99.90;;;;;;5080328;28;20032;-78
2022/12/21 10:37:51;;;;;;;4.05;3.10;;;9.50;99.90;;;;;;5085364;28;20089;-78
2022/12/21 10:40:18;;;;;;;8.90;5.90;;;9.50;99.90;;;;;;5071988;28;20029;-78
2022/12/21 10:42:49;;;;;;;11.68;6.40;;;9.50;99.90;;;;;;5071939;28;20577;-79
2022/12/21 10:45:17;;;;;;;2.72;2.53;;;9.60;99.90;;;;;;5077321;28;20325;-78
2022/12/21 10:47:44;;;;;;;3.50;2.70;;;9.70;99.90;;;;;;5072672;28;20360;-78
2022/12/21 10:50:28;;;;;;;2.97;2.67;;;9.80;99.90;;;;;;5069849;28;20036;-79
2022/12/21 10:52:59;;;;;;;2.53;2.30;;;9.90;99.90;;;;;;5065088;28;20446;-78
2022/12/21 10:55:32;;;;;;;2.50;2.30;;;10.00;99.90;;;;;;5059673;28;20477;-80
2022/12/21 10:58:13;;;;;;;2.38;2.17;;;10.00;99.90;;;;;;5070800;28;20052;-78
2022/12/21 11:00:49;;;;;;;2.65;2.30;;;10.00;99.90;;;;;;5067023;28;20537;-78
2022/12/21 11:03:28;;;;;;;2.58;2.20;;;10.00;99.90;;;;;;5081779;28;20032;-81
2022/12/21 11:05:54;;;;;;;3.47;2.80;;;10.00;99.90;;;;;;5075486;28;20127;-79
2022/12/21 11:08:28;;;;;;;3.75;3.30;;;10.00;99.90;;;;;;5070776;28;20090;-78
2022/12/21 11:11:01;;;;;;;4.10;3.70;;;10.00;99.90;;;;;;5076747;28;20036;-79
2022/12/21 11:13:29;;;;;;;5.30;4.03;;;10.00;99.90;;;;;;5074601;28;20020;-79
2022/12/21 11:16:06;;;;;;;5.78;4.30;;;9.90;99.90;;;;;;5071783;28;20028;-79
2022/12/21 11:18:39;;;;;;;5.63;4.63;;;10.00;99.90;;;;;;5074095;28;20060;-79
2022/12/21 11:21:30;;;;;;;5.25;4.38;;;9.90;99.90;;;;;;5075580;28;20025;-78
2022/12/21 11:24:13;;;;;;;5.30;4.55;;;9.90;99.90;;;;;;5075610;28;20438;-79
2022/12/21 11:26:44;;;;;;;5.63;4.85;;;9.80;99.90;;;;;;5057149;28;20064;-80
2022/12/21 11:29:29;;;;;;;6.88;4.97;;;9.80;99.90;;;;;;5067036;28;20074;-78
2022/12/21 11:32:07;;;;;;;5.20;4.68;;;9.70;99.90;;;;;;5063579;28;20497;-78
2022/12/21 11:34:35;;;;;;;5.00;4.50;;;9.70;99.90;;;;;;5069406;28;20078;-79
2022/12/21 11:37:04;;;;;;;6.13;4.35;;;9.80;99.90;;;;;;5084044;28;20103;-79
2022/12/21 11:39:30;;;;;;;5.95;4.85;;;9.80;99.90;;;;;;5073300;28;20397;-78
2022/12/21 11:41:55;;;;;;;8.68;6.15;;;9.70;99.90;;;;;;5073928;28;20032;-80
2022/12/21 11:44:28;;;;;;;5.75;4.85;;;9.60;99.90;;;;;;5065591;28;20082;-78
2022/12/21 11:47:02;;;;;;;5.60;4.88;;;9.60;99.90;;;;;;5053010;28;20032;-80
2022/12/21 11:50:05;;;;;;;5.22;4.72;;;9.60;99.90;;;;;;5059306;28;20262;-80
2022/12/21 11:52:58;;;;;;;7.93;5.85;;;9.60;99.90;;;;;;5065947;28;20110;-81
2022/12/21 11:55:27;;;;;;;6.75;5.95;;;9.60;99.90;;;;;;5068622;28;20032;-80
2022/12/21 11:58:34;;;;;;;6.45;5.35;;;9.60;99.90;;;;;;5074151;28;20059;-80
2022/12/21 12:01:09;;;;;;;6.93;5.78;;;9.50;99.90;;;;;;5068140;28;20028;-81
2022/12/21 12:04:06;;;;;;;6.97;5.57;;;9.50;99.90;;;;;;5062724;28;20029;-79
2022/12/21 12:06:50;;;;;;;;;;;9.60;99.90;;;;;;5069514;28;20020;-81
2022/12/21 12:09:47;;;;;;;6.85;5.50;;;9.60;99.90;;;;;;5066650;28;19977;-80
2022/12/21 12:12:51;;;;;;;7.55;6.18;;;9.70;99.90;;;;;;5072318;28;20600;-80
2022/12/21 12:15:17;;;;;;;7.60;5.65;;;9.70;99.90;;;;;;5012231;28;20036;-80
2022/12/21 12:18:25;;;;;;;7.05;6.20;;;9.60;99.90;;;;;;5069277;28;20089;-80
2022/12/21 12:21:18;;;;;;;9.88;6.78;;;9.60;99.90;;;;;;5062903;28;20500;-81
2022/12/21 12:24:18;;;;;;;7.60;5.75;;;9.60;99.90;;;;;;5085352;28;20032;-81
2022/12/21 12:27:02;;;;;;;10.30;6.50;;;9.60;99.90;;;;;;5024668;28;20098;-82
2022/12/21 12:29:59;;;;;;;6.28;5.65;;;9.70;99.90;;;;;;5059463;28;20384;-79
2022/12/21 12:32:24;;;;;;;6.20;5.43;;;9.70;99.90;;;;;;5059255;28;20089;-78
2022/12/21 12:35:13;;;;;;;5.55;5.00;;;9.80;99.90;;;;;;5062194;28;20602;-80
2022/12/21 12:38:03;;;;;;;6.22;4.80;;;9.70;99.90;;;;;;5063208;28;20060;-79
2022/12/21 12:40:59;;;;;;;5.47;4.60;;;9.80;99.90;;;;;;5059170;28;20089;-79
2022/12/21 12:43:53;;;;;;;7.88;4.57;;;9.80;99.90;;;;;;5061920;28;20052;-79
2022/12/21 12:46:34;;;;;;;4.95;4.45;;;9.80;99.90;;;;;;5064250;28;20116;-79
2022/12/21 12:49:17;;;;;;;4.85;4.25;;;9.90;99.90;;;;;;5064627;28;20489;-79
2022/12/21 12:52:07;;;;;;;7.15;5.43;;;9.80;99.90;;;;;;5068244;28;20051;-78
2022/12/21 12:54:55;;;;;;;6.22;4.65;;;9.90;99.90;;;;;;5071714;28;20028;-79
2022/12/21 12:57:35;;;;;;;9.18;6.03;;;10.00;99.90;;;;;;5065036;28;20368;-78
2022/12/21 13:00:13;;;;;;;5.28;4.47;;;10.00;99.90;;;;;;5075444;28;20386;-79
2022/12/21 13:02:58;;;;;;;5.45;4.40;;;9.90;99.90;;;;;;5068325;28;20024;-78
2022/12/21 13:05:49;;;;;;;35.70;22.03;;;9.90;99.90;;;;;;5063528;28;20032;-79
2022/12/21 13:08:42;;;;;;;3.65;3.33;;;9.90;99.90;;;;;;5064379;28;20270;-78
2022/12/21 13:11:38;;;;;;;11.57;4.00;;;9.90;99.90;;;;;;5073897;28;20039;-78
2022/12/21 13:14:14;;;;;;;4.50;4.10;;;9.90;99.90;;;;;;5064545;28;20422;-78
2022/12/21 13:16:43;;;;;;;5.10;3.80;;;9.90;99.90;;;;;;5074079;28;20035;-79
2022/12/21 13:19:17;;;;;;;4.95;3.88;;;9.90;99.90;;;;;;5064537;28;20102;-79
2022/12/21 13:21:44;;;;;;;3.60;3.30;;;10.00;99.90;;;;;;5070666;28;20039;-79
2022/12/21 13:24:12;;;;;;;5.22;4.32;;;9.90;99.90;;;;;;5069410;28;20078;-78
2022/12/21 13:26:48;;;;;;;8.40;4.03;;;9.90;99.90;;;;;;5068233;28;20029;-78